createdAt,value
2018-12-13T00:01:34.010Z,98511.41
2018-12-13T00:04:37.326Z,98512.16
2018-12-13T00:07:40.554Z,98509.59
2018-12-13T00:10:43.815Z,98507.45
2018-12-13T00:13:47.071Z,98506.05
2018-12-13T00:16:50.410Z,98504.81
2018-12-13T00:19:53.710Z,98510.41
2018-12-13T00:22:56.919Z,98505.41
2018-12-13T00:26:00.186Z,98505.55
2018-12-13T00:29:03.392Z,98503.65
2018-12-13T00:32:06.692Z,98502.75
2018-12-13T00:35:09.957Z,98503.64
2018-12-13T00:38:13.291Z,98504.55
2018-12-13T00:41:16.527Z,98503.04
2018-12-13T00:44:19.776Z,98495.02
2018-12-13T00:47:22.996Z,98489.34
2018-12-13T00:50:26.273Z,98482.95
2018-12-13T00:53:29.500Z,98478.77
2018-12-13T00:56:32.821Z,98481.41
2018-12-13T00:59:36.060Z,98481.41
2018-12-13T01:02:39.359Z,98482.63
2018-12-13T01:05:42.555Z,98482.99
2018-12-13T01:08:45.848Z,98477.37
2018-12-13T01:11:49.260Z,98479.80
2018-12-13T01:14:52.452Z,98479.45
2018-12-13T01:17:55.668Z,98479.48
2018-12-13T01:20:58.897Z,98478.17
2018-12-13T01:24:02.134Z,98476.37
2018-12-13T01:27:05.395Z,98482.33
2018-12-13T01:30:08.681Z,98481.04
2018-12-13T01:33:11.889Z,98475.73
2018-12-13T01:36:15.317Z,98468.72
2018-12-13T01:39:18.512Z,98475.70
2018-12-13T01:42:21.810Z,98466.08
2018-12-13T01:45:25.005Z,98463.29
2018-12-13T01:48:28.301Z,98460.05
2018-12-13T01:51:31.527Z,98453.66
2018-12-13T01:54:34.792Z,98459.32
2018-12-13T01:57:38.028Z,98466.14
2018-12-13T02:00:41.283Z,98457.11
2018-12-13T02:03:44.484Z,98452.94
2018-12-13T02:06:47.879Z,98448.87
2018-12-13T02:09:51.278Z,98447.83
2018-12-13T02:12:54.481Z,98439.57
2018-12-13T02:15:57.770Z,98440.84
2018-12-13T02:19:00.974Z,98432.95
2018-12-13T02:22:04.365Z,98427.28
2018-12-13T02:25:07.622Z,98430.86
2018-12-13T02:28:10.960Z,98432.36
2018-12-13T02:31:14.250Z,98422.55
2018-12-13T02:34:17.469Z,98424.89
2018-12-13T02:37:20.730Z,98419.93
2018-12-13T02:40:23.974Z,98414.84
2018-12-13T02:43:27.237Z,98411.38
2018-12-13T02:46:30.442Z,98409.16
2018-12-13T02:49:33.673Z,98409.88
2018-12-13T02:52:37.009Z,98409.66
2018-12-13T02:55:40.325Z,98406.20
2018-12-13T02:58:43.622Z,98400.11
2018-12-13T03:01:46.921Z,98401.20
2018-12-13T03:04:50.121Z,98401.95
2018-12-13T03:07:53.374Z,98392.37
2018-12-13T03:10:56.689Z,98395.72
2018-12-13T03:14:00.057Z,98391.05
2018-12-13T03:17:03.608Z,98394.00
2018-12-13T03:20:06.912Z,98400.95
2018-12-13T03:23:10.309Z,98397.04
2018-12-13T03:26:13.553Z,98395.06
2018-12-13T03:29:16.798Z,98384.98
2018-12-13T03:32:20.009Z,98384.04
2018-12-13T03:35:23.362Z,98385.59
2018-12-13T03:38:26.605Z,98376.58
2018-12-13T03:41:29.965Z,98379.98
2018-12-13T03:44:33.192Z,98373.70
2018-12-13T03:47:36.439Z,98373.61
2018-12-13T03:50:39.658Z,98369.70
2018-12-13T03:53:42.950Z,98368.59
2018-12-13T03:56:46.180Z,98365.55
2018-12-13T03:59:49.463Z,98356.79
2018-12-13T04:02:52.863Z,98360.96
2018-12-13T04:05:56.772Z,98358.58
2018-12-13T04:08:59.998Z,98352.27
2018-12-13T04:12:03.264Z,98353.62
2018-12-13T04:15:06.559Z,98346.31
2018-12-13T04:18:10.024Z,98336.72
2018-12-13T04:21:13.361Z,98328.80
2018-12-13T04:24:16.590Z,98329.52
2018-12-13T04:27:19.853Z,98317.34
2018-12-13T04:30:23.067Z,98317.08
2018-12-13T04:33:26.344Z,98317.92
2018-12-13T04:36:29.548Z,98314.08
2018-12-13T04:39:32.780Z,98316.53
2018-12-13T04:42:36.004Z,98311.65
2018-12-13T04:45:39.255Z,98309.88
2018-12-13T04:48:42.568Z,98304.22
2018-12-13T04:51:45.822Z,98301.81
2018-12-13T04:54:49.027Z,98302.58
2018-12-13T04:57:52.358Z,98298.07
2018-12-13T05:00:55.585Z,98296.73
2018-12-13T05:03:58.849Z,98295.31
2018-12-13T05:07:02.066Z,98291.22
2018-12-13T05:10:05.912Z,98283.59
2018-12-13T05:13:09.149Z,98277.81
2018-12-13T05:16:12.378Z,98276.53
2018-12-13T05:19:15.604Z,98276.59
2018-12-13T05:22:18.895Z,98277.01
2018-12-13T05:25:22.096Z,98275.47
2018-12-13T05:28:25.375Z,98269.52
2018-12-13T05:31:28.584Z,98275.75
2018-12-13T05:34:31.877Z,98275.55
2018-12-13T05:37:35.089Z,98259.94
2018-12-13T05:40:38.373Z,98262.89
2018-12-13T05:43:41.580Z,98267.32
2018-12-13T05:46:44.811Z,98263.86
2018-12-13T05:49:48.193Z,98271.16
2018-12-13T05:52:51.456Z,98264.47
2018-12-13T05:55:54.665Z,98272.61
2018-12-13T05:58:57.892Z,98273.80
2018-12-13T06:02:01.140Z,98266.28
2018-12-13T06:05:05.849Z,98269.94
2018-12-13T06:08:09.075Z,98265.16
2018-12-13T06:11:12.365Z,98263.98
2018-12-13T06:14:15.606Z,98260.12
2018-12-13T06:17:19.636Z,98264.83
2018-12-13T06:20:22.983Z,98262.90
2018-12-13T06:23:26.188Z,98260.67
2018-12-13T06:26:29.468Z,98265.98
2018-12-13T06:29:32.709Z,98270.05
2018-12-13T06:32:36.021Z,98269.58
2018-12-13T06:35:39.233Z,98272.43
2018-12-13T06:38:42.552Z,98268.41
2018-12-13T06:41:45.753Z,98269.91
2018-12-13T06:44:49.044Z,98270.50
2018-12-13T06:47:52.248Z,98266.08
2018-12-13T06:50:55.597Z,98266.26
2018-12-13T06:53:58.935Z,98262.59
2018-12-13T06:57:02.181Z,98261.63
2018-12-13T07:00:08.323Z,98262.42
2018-12-13T07:03:11.565Z,98256.93
2018-12-13T07:06:14.896Z,98257.43
2018-12-13T07:09:18.130Z,98261.08
2018-12-13T07:12:21.369Z,98263.19
2018-12-13T07:15:24.621Z,98256.08
2018-12-13T07:18:27.956Z,98253.80
2018-12-13T07:21:31.208Z,98253.16
2018-12-13T07:24:34.466Z,98253.09
2018-12-13T07:27:37.763Z,98250.52
2018-12-13T07:30:41.059Z,98252.16
2018-12-13T07:33:44.293Z,98254.20
2018-12-13T07:36:47.565Z,98255.98
2018-12-13T07:39:50.853Z,98254.03
2018-12-13T07:42:54.120Z,98249.95
2018-12-13T07:45:57.328Z,98255.61
2018-12-13T07:49:00.638Z,98243.42
2018-12-13T07:52:03.872Z,98241.89
2018-12-13T07:55:07.232Z,98242.07
2018-12-13T07:58:10.445Z,98247.09
2018-12-13T08:01:13.724Z,98253.98
2018-12-13T08:04:16.954Z,98251.11
2018-12-13T08:07:20.220Z,98243.45
2018-12-13T08:10:23.615Z,98241.31
2018-12-13T08:13:26.915Z,98243.13
2018-12-13T08:16:30.209Z,98240.66
2018-12-13T08:19:33.432Z,98237.48
2018-12-13T08:22:36.702Z,98236.45
2018-12-13T08:25:39.922Z,98233.23
2018-12-13T08:28:43.194Z,98238.20
2018-12-13T08:31:46.491Z,98230.06
2018-12-13T08:34:49.789Z,98232.81
2018-12-13T08:37:52.992Z,98225.34
2018-12-13T08:40:56.280Z,98226.67
2018-12-13T08:43:59.486Z,98228.95
2018-12-13T08:47:02.740Z,98230.59
2018-12-13T08:50:06.137Z,98225.77
2018-12-13T08:53:09.399Z,98229.23
2018-12-13T08:56:12.740Z,98225.34
2018-12-13T08:59:15.973Z,98222.42
2018-12-13T09:02:19.223Z,98230.02
2018-12-13T09:05:22.761Z,98223.16
2018-12-13T09:08:26.010Z,98227.40
2018-12-13T09:11:29.457Z,98222.92
2018-12-13T09:14:32.856Z,98227.13
2018-12-13T09:17:36.069Z,98227.13
2018-12-13T09:20:39.299Z,98236.07
2018-12-13T09:23:43.053Z,98229.03
2018-12-13T09:26:46.340Z,98223.16
2018-12-13T09:29:49.649Z,98216.40
2018-12-13T09:32:52.946Z,98224.78
2018-12-13T09:35:56.244Z,98232.55
2018-12-13T09:38:59.449Z,98224.89
2018-12-13T09:42:02.736Z,98220.48
2018-12-13T09:45:07.536Z,98219.33
2018-12-13T09:51:22.889Z,98218.92
2018-12-13T09:54:26.146Z,98208.92
2018-12-13T09:57:34.059Z,98210.61
2018-12-13T10:00:37.308Z,98206.41
2018-12-13T10:03:40.531Z,98207.28
2018-12-13T10:06:43.836Z,98204.92
2018-12-13T10:09:47.164Z,98207.19
2018-12-13T10:12:50.428Z,98202.13
2018-12-13T10:15:53.680Z,98198.95
2018-12-13T10:18:56.912Z,98193.38
2018-12-13T10:22:00.147Z,98195.69
2018-12-13T10:25:03.437Z,98192.59
2018-12-13T10:28:06.661Z,98187.85
2018-12-13T10:31:09.917Z,98183.95
2018-12-13T10:34:13.137Z,98190.38
2018-12-13T10:37:16.378Z,98182.58
2018-12-13T10:40:19.819Z,98187.64
2018-12-13T10:43:23.077Z,98180.97
2018-12-13T10:46:26.310Z,98177.02
2018-12-13T10:49:29.568Z,98175.77
2018-12-13T10:52:32.882Z,98177.14
2018-12-13T10:55:36.100Z,98167.76
2018-12-13T10:58:39.362Z,98161.52
2018-12-13T11:05:03.584Z,98156.80
2018-12-13T11:08:06.876Z,98152.91
2018-12-13T11:11:10.100Z,98157.88
2018-12-13T11:14:13.326Z,98152.33
2018-12-13T11:17:16.615Z,98147.98
2018-12-13T11:20:19.872Z,98157.42
2018-12-13T11:23:23.101Z,98155.46
2018-12-13T11:26:26.385Z,98150.56
2018-12-13T11:33:24.753Z,98141.74
2018-12-13T11:36:28.040Z,98137.97
2018-12-13T11:39:31.260Z,98129.98
2018-12-13T11:42:34.493Z,98130.84
2018-12-13T11:45:37.761Z,98128.54
2018-12-13T11:48:41.072Z,98125.90
2018-12-13T11:51:44.463Z,98134.91
2018-12-13T11:54:47.957Z,98134.77
2018-12-13T11:57:51.262Z,98129.48
2018-12-13T12:00:54.468Z,98132.38
2018-12-13T12:03:57.754Z,98134.67
2018-12-13T12:07:00.988Z,98125.47
2018-12-13T12:10:04.660Z,98130.82
2018-12-13T12:13:07.925Z,98129.41
2018-12-13T12:16:11.128Z,98135.08
2018-12-13T12:19:14.446Z,98130.12
2018-12-13T12:22:17.796Z,98128.22
2018-12-13T12:25:21.041Z,98126.80
2018-12-13T12:28:24.337Z,98129.67
2018-12-13T12:31:27.722Z,98127.41
2018-12-13T12:34:30.949Z,98125.19
2018-12-13T12:37:34.213Z,98136.06
2018-12-13T12:40:37.435Z,98120.91
2018-12-13T12:43:40.663Z,98120.82
2018-12-13T12:46:43.918Z,98117.23
2018-12-13T12:49:47.261Z,98118.01
2018-12-13T12:52:50.493Z,98117.72
2018-12-13T12:55:53.813Z,98114.22
2018-12-13T12:58:57.029Z,98109.67
2018-12-13T13:02:00.392Z,98113.32
2018-12-13T13:05:04.660Z,98113.73
2018-12-13T13:08:07.921Z,98111.89
2018-12-13T13:11:11.144Z,98116.47
2018-12-13T13:14:14.376Z,98119.66
2018-12-13T13:17:17.608Z,98114.81
2018-12-13T13:20:20.989Z,98114.27
2018-12-13T13:23:24.197Z,98107.45
2018-12-13T13:26:27.497Z,98103.47
2018-12-13T13:29:30.713Z,98104.83
2018-12-13T13:32:33.957Z,98100.10
2018-12-13T13:35:37.275Z,98105.39
2018-12-13T13:38:40.582Z,98100.59
2018-12-13T13:41:43.828Z,98097.70
2018-12-13T13:44:47.469Z,98100.92
2018-12-13T13:47:50.793Z,98087.49
2018-12-13T13:50:54.051Z,98088.90
2018-12-13T13:53:57.303Z,98095.86
2018-12-13T13:57:00.568Z,98094.36
2018-12-13T14:00:06.829Z,98084.94
2018-12-13T14:03:10.054Z,98080.78
2018-12-13T14:06:13.279Z,98088.95
2018-12-13T14:09:16.522Z,98096.57
2018-12-13T14:12:19.733Z,98100.64
2018-12-13T14:15:23.004Z,98099.83
2018-12-13T14:18:26.237Z,98103.20
2018-12-13T14:21:29.483Z,98101.44
2018-12-13T14:24:32.794Z,98102.19
2018-12-13T14:27:36.077Z,98101.39
2018-12-13T14:30:39.320Z,98098.66
2018-12-13T14:33:42.586Z,98098.81
2018-12-13T14:36:45.893Z,98101.02
2018-12-13T14:39:49.130Z,98098.55
2018-12-13T14:42:52.448Z,98089.19
2018-12-13T14:45:55.668Z,98097.83
2018-12-13T14:48:58.979Z,98099.17
2018-12-13T14:52:02.193Z,98096.80
2018-12-13T14:55:05.500Z,98097.53
2018-12-13T14:58:08.752Z,98101.68
2018-12-13T15:01:12.021Z,98103.89
2018-12-13T15:04:15.254Z,98103.16
2018-12-13T15:07:18.548Z,98108.00
2018-12-13T15:10:21.856Z,98109.38
2018-12-13T15:13:25.178Z,98104.95
2018-12-13T15:16:28.415Z,98113.80
2018-12-13T15:19:31.682Z,98110.13
2018-12-13T15:22:35.042Z,98106.14
2018-12-13T15:25:38.272Z,98107.73
2018-12-13T15:28:41.532Z,98106.28
2018-12-13T15:31:44.741Z,98112.77
2018-12-13T15:34:48.023Z,98108.34
2018-12-13T15:37:51.273Z,98110.48
2018-12-13T15:40:54.516Z,98114.40
2018-12-13T15:43:57.911Z,98110.34
2018-12-13T15:47:01.162Z,98111.42
2018-12-13T15:50:06.486Z,98116.98
2018-12-13T15:53:09.750Z,98112.67
2018-12-13T15:56:13.004Z,98113.01
2018-12-13T15:59:16.233Z,98118.21
2018-12-13T16:02:19.542Z,98121.22
2018-12-13T16:05:22.768Z,98118.05
2018-12-13T16:08:25.997Z,98114.44
2018-12-13T16:11:29.217Z,98104.94
2018-12-13T16:14:32.444Z,98106.50
2018-12-13T16:17:35.668Z,98114.27
2018-12-13T16:20:38.897Z,98119.27
2018-12-13T16:23:42.216Z,98124.84
2018-12-13T16:26:45.492Z,98127.57
2018-12-13T16:29:48.941Z,98120.70
2018-12-13T16:32:52.174Z,98120.37
2018-12-13T16:35:55.432Z,98117.86
2018-12-13T16:38:58.673Z,98126.01
2018-12-13T16:42:01.934Z,98122.11
2018-12-13T16:45:05.609Z,98128.31
2018-12-13T16:48:08.929Z,98125.98
2018-12-13T16:51:12.260Z,98129.84
2018-12-13T16:54:15.534Z,98126.97
2018-12-13T16:57:18.745Z,98123.14
2018-12-13T17:00:22.004Z,98124.65
2018-12-13T17:03:39.176Z,98126.83
2018-12-13T17:06:42.597Z,98132.06
2018-12-13T17:09:46.264Z,98134.58
2018-12-13T17:12:49.484Z,98128.92
2018-12-13T17:15:52.795Z,98130.50
2018-12-13T17:18:56.099Z,98131.23
2018-12-13T17:21:59.353Z,98124.81
2018-12-13T17:25:02.589Z,98120.16
2018-12-13T17:28:05.844Z,98128.46
2018-12-13T17:31:09.074Z,98125.05
2018-12-13T17:34:12.364Z,98119.67
2018-12-13T17:37:15.918Z,98126.66
2018-12-13T17:40:23.090Z,98127.16
2018-12-13T17:43:24.504Z,98123.59
2018-12-13T17:46:27.761Z,98119.81
2018-12-13T17:49:31.019Z,98124.13
2018-12-13T17:52:34.261Z,98118.40
2018-12-13T17:55:37.508Z,98121.04
2018-12-13T17:58:40.812Z,98112.66
2018-12-13T18:01:44.044Z,98108.77
2018-12-13T18:04:47.310Z,98114.44
2018-12-13T18:07:50.697Z,98125.19
2018-12-13T18:10:53.952Z,98113.31
2018-12-13T18:13:57.485Z,98110.72
2018-12-13T18:17:00.736Z,98117.27
2018-12-13T18:20:05.105Z,98114.75
2018-12-13T18:23:08.397Z,98122.56
2018-12-13T18:26:11.796Z,98118.40
2018-12-13T18:29:15.112Z,98116.68
2018-12-13T18:32:18.500Z,98114.64
2018-12-13T18:35:22.522Z,98110.22
2018-12-13T18:38:25.804Z,98111.90
2018-12-13T18:41:29.311Z,98110.27
2018-12-13T18:44:33.324Z,98113.91
2018-12-13T18:47:36.719Z,98109.26
2018-12-13T18:50:40.542Z,98106.44
2018-12-13T18:53:43.833Z,98107.75
2018-12-13T18:56:47.139Z,98110.48
2018-12-13T18:59:50.352Z,98119.23
2018-12-13T19:02:53.672Z,98122.38
2018-12-13T19:05:57.021Z,98126.91
2018-12-13T19:09:00.312Z,98122.17
2018-12-13T19:12:03.611Z,98123.00
2018-12-13T19:15:07.227Z,98123.16
2018-12-13T19:18:10.464Z,98115.41
2018-12-13T19:21:14.338Z,98124.42
2018-12-13T19:24:18.143Z,98118.42
2018-12-13T19:27:21.465Z,98126.71
2018-12-13T19:30:24.725Z,98134.78
2018-12-13T19:33:28.443Z,98133.77
2018-12-13T19:36:32.212Z,98129.90
2018-12-13T19:39:35.550Z,98133.50
2018-12-13T19:42:38.761Z,98128.04
2018-12-13T19:45:42.130Z,98129.76
2018-12-13T19:48:45.419Z,98136.23
2018-12-13T19:51:48.740Z,98133.86
2018-12-13T19:54:52.048Z,98133.58
2018-12-13T19:57:55.425Z,98138.30
2018-12-13T20:01:04.671Z,98132.48
2018-12-13T20:04:07.971Z,98136.64
2018-12-13T20:07:11.176Z,98142.24
2018-12-13T20:10:14.488Z,98145.39
2018-12-13T20:13:17.732Z,98140.66
2018-12-13T20:16:21.392Z,98139.15
2018-12-13T20:19:24.690Z,98144.30
2018-12-13T20:22:27.954Z,98147.53
2018-12-13T20:25:31.178Z,98158.89
2018-12-13T20:28:34.438Z,98154.95
2018-12-13T20:31:37.734Z,98155.19
2018-12-13T20:34:41.969Z,98158.55
2018-12-13T20:37:45.915Z,98155.62
2018-12-13T20:40:49.868Z,98160.77
2018-12-13T20:43:53.188Z,98162.97
2018-12-13T20:46:57.103Z,98160.83
2018-12-13T20:50:00.364Z,98160.97
2018-12-13T20:53:03.695Z,98168.11
2018-12-13T20:56:06.992Z,98156.44
2018-12-13T20:59:10.483Z,98164.22
2018-12-13T21:02:13.792Z,98170.91
2018-12-13T21:05:17.021Z,98170.45
2018-12-13T21:08:32.505Z,98169.73
2018-12-13T21:11:38.046Z,98177.08
2018-12-13T21:14:45.647Z,98173.27
2018-12-13T21:17:49.708Z,98167.75
2018-12-13T21:20:53.491Z,98174.61
2018-12-13T21:24:14.050Z,98175.12
2018-12-13T21:27:17.280Z,98176.25
2018-12-13T21:30:20.525Z,98169.86
2018-12-13T21:33:23.833Z,98183.73
2018-12-13T21:36:27.065Z,98180.02
2018-12-13T21:39:30.324Z,98183.20
2018-12-13T21:42:33.540Z,98185.69
2018-12-13T21:45:36.798Z,98188.29
2018-12-13T21:48:41.038Z,98179.71
2018-12-13T21:51:44.248Z,98186.04
2018-12-13T21:54:47.496Z,98179.43
2018-12-13T21:57:51.964Z,98184.95
2018-12-13T22:00:55.452Z,98188.97
2018-12-13T22:03:58.708Z,98189.19
2018-12-13T22:07:02.049Z,98189.52
2018-12-13T22:10:07.533Z,98187.55
2018-12-13T22:13:11.922Z,98183.98
2018-12-13T22:16:16.240Z,98182.53
2018-12-13T22:19:19.602Z,98185.58
2018-12-13T22:22:22.938Z,98185.45
2018-12-13T22:25:26.232Z,98188.64
2018-12-13T22:28:29.531Z,98192.75
2018-12-13T22:31:32.764Z,98183.86
2018-12-13T22:34:36.227Z,98183.22
2018-12-13T22:37:39.736Z,98181.61
2018-12-13T22:40:43.832Z,98184.30
2018-12-13T22:43:47.090Z,98193.17
2018-12-13T22:46:51.157Z,98197.06
2018-12-13T22:49:54.379Z,98195.66
2018-12-13T22:52:58.349Z,98197.16
2018-12-13T22:56:01.673Z,98204.97
2018-12-13T22:59:04.954Z,98208.41
2018-12-13T23:02:08.344Z,98203.72
2018-12-13T23:05:11.851Z,98209.42
2018-12-13T23:08:15.466Z,98206.39
2018-12-13T23:11:18.762Z,98207.52
2018-12-13T23:14:22.556Z,98207.45
2018-12-13T23:17:26.073Z,98204.66
2018-12-13T23:20:29.863Z,98203.88
2018-12-13T23:23:38.020Z,98206.83
2018-12-13T23:26:41.291Z,98211.37
2018-12-13T23:29:45.277Z,98211.81
2018-12-13T23:32:48.540Z,98212.28
2018-12-13T23:35:51.795Z,98207.11
2018-12-13T23:38:55.081Z,98203.20
2018-12-13T23:41:58.389Z,98202.52
2018-12-13T23:45:02.301Z,98202.26
2018-12-13T23:48:05.598Z,98214.39
2018-12-13T23:51:09.597Z,98211.38
2018-12-13T23:54:12.892Z,98205.30
2018-12-13T23:57:16.420Z,98209.48
